x

Ilm3 - 27 Miles Se Of Wrightsville Beach, Nc (41037) Weather Station

9:08am - Thu 29th Jun 2017 All times are EDT. -4 hours from GMT.

  • Wind
    9mph, 13mph gusts
  • Sea Temp 80°f
  • 空気 Temp 80°f
  • Sea Pressure 1023.4mb
  • Ilm3 - 27 Miles Se Of Wrightsville Beach, Nc
  • Ilm3 - 27 Miles Se Of Wrightsville Beach, Nc

More Historic Weather Station data

Upgrade to MSW Pro to gain access to the past 30 days of data for over 8000 Wavebouys and Weather Stations around the globe.

Join Pro

Comparision Forecast

View Surf forecast
   
Thu 06/29 9:08am 9 13 mph 1023.4mb 80f 80f
8:08am 9 11 mph 1023.1mb 80f 80f
7:08am 9 11 mph 1022.5mb 80f 79f
6:08am 9 13 mph 1022.1mb 80f 78f
5:08am 9 13 mph 1021.7mb 80f 79f
4:08am 9 11 mph 1021.3mb 80f 79f
3:08am 9 11 mph 1021.5mb 80f 78f
2:08am 7 9 mph 1021.5mb 80f 79f
1:08am 7 9 mph 1021.9mb 80f 79f
12:08am 7 11 mph 1022.2mb 80f 79f
Wed 06/28 11:08pm 9 13 mph 1022.3mb 80f 79f
5:08pm 7 11 mph 1021.5mb 81f 80f
4:08pm 7 11 mph 1021.4mb 81f 80f
3:08pm 9 16 mph 1021.6mb 80f 79f
2:08pm 11 16 mph 1021.8mb 80f 78f
1:08pm 11 13 mph 1022.1mb 80f 78f
11:08am 13 18 mph 1021.3mb 80f 78f
10:08am 16 20 mph 1021mb 80f 78f
9:08am 16 22 mph 1020.9mb 80f 78f
8:08am 16 22 mph 1020.2mb 80f 79f
7:08am 18 22 mph 1019mb 80f 78f
6:08am 18 22 mph 1018.7mb 80f 78f
5:08am 18 25 mph 1018mb 80f 78f
4:08am 18 25 mph 1018.1mb 80f 78f
3:08am 18 25 mph 1017.8mb 81f 79f
2:08am 13 20 mph 1017.2mb 81f 79f
1:08am 11 16 mph 1017.3mb 81f 80f
12:08am 9 11 mph 1017.2mb 81f 80f
Tue 06/27 11:08pm 7 11 mph 1016.6mb 81f 80f
10:08pm 7 9 mph 1016.5mb 81f 80f
9:08pm 7 9 mph 1015.7mb 81f 80f
8:08pm 7 9 mph 1015.6mb 82f 80f
7:08pm 7 9 mph 1015.4mb 83f 81f
6:08pm 4 7 mph 1015.5mb 82f 81f
5:08pm 4 9 mph 1016.3mb 82f 81f
4:08pm 2 7 mph 1016.3mb 82f 82f
3:08pm  -  2 mph 1016.5mb 82f 83f
1:08pm 2 4 mph 1016.4mb 82f 81f
12:08pm 4 9 mph 1016.7mb 81f 80f
11:08am 4 9 mph 1016.6mb 80f -
10:08am 7 11 mph 1016.4mb 80f 78f
9:08am 9 13 mph 1016.2mb 80f 77f
8:08am 9 13 mph 1016.2mb 80f 77f
7:08am 7 9 mph 1016mb 80f 77f
6:08am 4 9 mph 1015.8mb 80f 76f
5:08am 7 9 mph 1015.4mb 80f 77f
4:08am 4 9 mph 1015mb 80f 77f
3:08am 4 7 mph 1015.3mb 80f 77f
2:08am 4 7 mph 1015.9mb 80f 77f
1:08am 4 9 mph 1015.9mb 80f 77f
12:08am 4 9 mph 1016.4mb 80f 77f
Mon 06/26 11:08pm 4 7 mph 1016mb 80f 77f
10:08pm 4 7 mph 1016.2mb 80f 77f
9:08pm 4 7 mph 1016.3mb 81f 77f
8:08pm 4 9 mph 1016.3mb 81f 77f
7:08pm 7 11 mph 1016.2mb 81f 78f
6:08pm 9 13 mph 1016mb 81f 78f
5:08pm 9 13 mph 1017.1mb 81f 78f
4:08pm 9 13 mph 1017.3mb 81f 78f
3:08pm 9 13 mph 1017.6mb 81f 78f
2:08pm 9 13 mph 1018.2mb 81f 78f
1:08pm 11 18 mph 1018.3mb 80f 77f
12:08pm 11 18 mph 1018.4mb 80f 78f
11:08am 11 16 mph 1018.9mb 80f 78f
10:08am 11 18 mph 1018.6mb 80f 78f
9:08am 13 20 mph 1018.5mb 80f 77f
8:08am 16 22 mph 1017.4mb 80f 77f
7:08am 13 20 mph 1017.5mb 80f 77f
6:08am 16 22 mph 1017.3mb 80f 77f
5:08am 16 22 mph 1016.7mb 80f 74f
4:08am 11 16 mph 1016.9mb 80f 75f
3:08am 9 13 mph 1017.3mb 80f 76f
2:08am 4 7 mph 1017mb 80f 77f
1:08am 4 7 mph 1017.5mb 80f 78f
12:08am 4 7 mph 1017.6mb 80f 79f
Sun 06/25 11:08pm 4 9 mph 1017.5mb 80f 78f
10:08pm 7 11 mph 1017.1mb 80f 78f
9:08pm 11 16 mph 1017mb 80f 77f
8:08pm 18 25 mph 1017.6mb 81f 79f
7:08pm 18 25 mph 1016.8mb 80f 78f
6:08pm 18 22 mph 1016.1mb 81f 79f
5:08pm 11 16 mph 1016mb 81f 79f
4:08pm 11 16 mph 1016.7mb 81f 80f
3:08pm 13 18 mph 1017mb 81f 79f